createdAt,value
2022-08-30T01:31:24.470Z,21.40
2022-08-30T01:33:51.278Z,19.00
2022-08-30T01:36:20.275Z,18.90
2022-08-30T01:38:53.830Z,19.00
2022-08-30T01:41:30.003Z,19.00
2022-08-30T10:37:39.819Z,24.30
2022-08-30T10:40:36.548Z,24.40
2022-08-30T10:43:09.876Z,24.60
2022-08-30T10:45:43.976Z,24.90
2022-08-30T10:48:19.495Z,24.90
2022-08-30T10:50:53.621Z,25.20
2022-08-30T10:53:28.025Z,25.50
2022-08-30T10:56:14.149Z,25.50
2022-08-30T10:58:42.576Z,25.00
2022-08-30T11:01:46.596Z,25.00
2022-08-30T11:04:22.431Z,25.20
2022-08-30T11:07:02.967Z,25.30
2022-08-30T11:09:42.689Z,25.50
2022-08-30T11:12:33.181Z,25.50
2022-08-30T11:17:35.151Z,25.70
2022-08-30T11:20:19.734Z,26.00
2022-08-30T11:39:44.957Z,26.30
2022-08-30T11:42:34.478Z,27.10
2022-08-30T11:45:40.836Z,26.50
2022-08-30T11:48:29.132Z,26.70
2022-08-30T11:53:28.042Z,27.00
2022-08-30T11:56:04.269Z,27.50
2022-08-30T11:58:44.182Z,27.30
2022-08-30T12:01:42.274Z,27.40
2022-08-30T12:04:21.250Z,27.30
2022-08-30T12:06:57.021Z,27.30
2022-08-30T12:09:23.943Z,27.40
2022-08-30T12:12:15.365Z,27.70
2022-08-30T12:14:51.869Z,27.80
2022-08-30T12:17:40.816Z,27.70
2022-08-30T12:20:41.351Z,27.30
2022-08-30T12:23:20.081Z,27.50
2022-08-30T12:25:47.346Z,27.50
2022-08-30T12:28:24.521Z,27.70
2022-08-30T12:30:52.234Z,26.80
2022-08-30T12:33:41.359Z,26.90
2022-08-30T12:36:14.783Z,27.00
2022-08-30T12:38:41.767Z,27.10
2022-08-30T12:41:08.879Z,27.20
2022-08-30T12:43:41.506Z,27.50
2022-08-30T12:46:15.349Z,27.60
2022-08-30T12:48:44.383Z,27.60
2022-08-30T12:51:44.749Z,28.00
2022-08-30T12:54:29.300Z,27.70
2022-08-30T12:59:59.673Z,27.40
2022-08-30T13:02:47.208Z,27.80
2022-08-30T13:05:34.559Z,27.50
2022-08-30T13:08:25.431Z,27.80
2022-08-30T13:11:11.557Z,27.80
2022-08-30T13:13:38.711Z,28.00
2022-08-30T13:16:21.106Z,28.00
2022-08-30T13:18:50.133Z,27.80
2022-08-30T13:21:31.782Z,27.50
2022-08-30T13:24:01.780Z,27.80
2022-08-30T13:26:32.849Z,28.10
2022-08-30T13:29:02.115Z,28.20
2022-08-30T13:31:30.419Z,28.50
2022-08-30T13:33:57.841Z,28.40
2022-08-30T13:36:35.295Z,28.10
2022-08-30T13:39:03.379Z,28.50
2022-08-30T13:41:34.187Z,29.10
2022-08-30T13:44:11.641Z,28.50
2022-08-30T13:46:42.708Z,28.40
2022-08-30T13:52:21.681Z,28.10
2022-08-30T13:54:51.431Z,29.00
2022-08-30T14:00:12.663Z,28.20
2022-08-30T14:02:45.409Z,28.70
2022-08-30T14:05:37.712Z,28.90
2022-08-30T14:08:02.556Z,28.40
2022-08-30T14:10:32.004Z,28.50
2022-08-30T14:13:08.175Z,28.60
2022-08-30T14:15:39.256Z,28.70
2022-08-30T14:18:07.566Z,28.70
2022-08-30T14:20:38.692Z,29.00
2022-08-30T14:25:37.719Z,29.10
2022-08-30T14:28:07.324Z,28.80
2022-08-30T14:30:34.307Z,29.00
2022-08-30T14:33:01.220Z,29.10
2022-08-30T14:35:28.823Z,29.30
2022-08-30T14:37:55.796Z,29.20
2022-08-30T14:40:22.841Z,28.50
2022-08-30T14:42:50.192Z,28.40
2022-08-30T14:45:17.274Z,28.70
2022-08-30T14:47:44.363Z,28.80
2022-08-30T14:50:11.316Z,28.60
2022-08-30T14:57:38.544Z,27.80
2022-08-30T15:00:07.837Z,28.80
2022-08-30T15:02:34.668Z,28.50
2022-08-30T15:05:02.290Z,28.40
2022-08-30T15:07:29.133Z,28.50
2022-08-30T15:09:55.966Z,28.00
2022-08-30T15:12:23.054Z,28.10
2022-08-30T15:14:51.024Z,28.40
2022-08-30T15:17:19.507Z,28.20
2022-08-30T15:19:46.308Z,28.60
2022-08-30T15:22:15.178Z,28.30
2022-08-30T15:24:43.663Z,28.90
2022-08-30T15:27:15.932Z,27.90
2022-08-30T15:29:42.755Z,27.90
2022-08-30T15:32:09.831Z,28.10
2022-08-30T15:34:36.612Z,28.00
2022-08-30T15:37:05.235Z,28.20
2022-08-30T15:39:34.983Z,28.40
2022-08-30T16:31:34.956Z,27.90
2022-08-30T16:39:00.095Z,26.80
2022-08-30T16:41:27.766Z,26.80
2022-08-30T16:43:54.991Z,26.80
2022-08-30T16:46:27.895Z,26.60
2022-08-30T16:48:57.710Z,26.30
2022-08-30T16:51:27.233Z,26.20
2022-08-30T16:53:56.124Z,26.10
2022-08-30T16:59:01.215Z,25.80
2022-08-30T17:01:29.531Z,25.60
2022-08-30T17:03:56.450Z,25.60
2022-08-30T17:06:23.306Z,25.60
2022-08-30T17:08:52.568Z,25.60
2022-08-30T17:13:51.363Z,25.20
2022-08-30T17:16:22.543Z,25.10
2022-08-30T17:18:55.978Z,25.20
2022-08-30T17:21:27.536Z,25.10
2022-08-30T17:23:54.420Z,25.30
2022-08-30T17:26:28.179Z,25.40
2022-08-30T17:28:55.147Z,25.40
2022-08-30T17:31:23.045Z,24.80
2022-08-30T17:33:50.412Z,24.80
2022-08-30T17:36:17.474Z,24.80
2022-08-30T17:38:44.993Z,24.80
2022-08-30T17:41:13.086Z,24.50
2022-08-30T18:50:34.145Z,24.60
2022-08-30T18:53:01.653Z,23.30
2022-08-30T18:55:28.707Z,23.20
2022-08-30T18:57:55.589Z,23.20
2022-08-30T19:00:23.809Z,23.10
2022-08-30T19:02:50.941Z,23.00
2022-08-30T19:05:20.070Z,23.00
2022-08-30T19:30:30.371Z,22.90
2022-08-30T19:32:57.656Z,22.80
2022-08-30T19:35:24.718Z,22.70
2022-08-30T19:37:51.921Z,22.70
2022-08-30T19:40:20.624Z,22.60
2022-08-30T22:29:31.011Z,22.50
2022-08-30T22:31:58.282Z,21.10
2022-08-30T22:34:25.869Z,21.00
2022-08-30T22:36:52.700Z,20.90
2022-08-30T22:39:19.539Z,21.00
2022-08-30T22:41:47.277Z,20.90
2022-08-30T22:44:14.101Z,20.90
2022-08-30T22:46:41.551Z,21.00
2022-08-30T22:49:10.014Z,20.90
2022-08-30T22:51:38.184Z,20.90
2022-08-30T22:54:07.180Z,20.80
2022-08-30T22:56:36.010Z,20.90
2022-08-30T22:59:03.002Z,20.80
2022-08-30T23:01:34.613Z,20.60
2022-08-30T23:04:02.269Z,20.60
2022-08-30T23:06:29.828Z,20.70
2022-08-30T23:08:57.429Z,20.60
2022-08-30T23:11:25.213Z,20.60
2022-08-30T23:13:52.774Z,20.60
